Time;durP1;ratioP1;P1;durP2;ratioP2;P2;SDS_P1;SDS_P2;PMS_P1;PMS_P2;Temp;Humidity;BMP_temperature;BMP_pressure;BME280_temperature;BME280_humidity;BME280_pressure;Samples;Min_cycle;Max_cycle;Signal;HPM_P1;HPM_P2
2021/05/29 00:01:38;;;;;;;8.00;5.10;;;;;;;;;;4420074;32;20268;-53
2021/05/29 00:04:03;;;;;;;8.38;5.03;;;;;;;;;;4420722;32;20304;-53
2021/05/29 00:06:29;;;;;;;8.05;4.95;;;;;;;;;;4420158;32;20229;-53
2021/05/29 00:08:55;;;;;;;11.00;5.20;;;;;;;;;;4420305;32;20257;-52
2021/05/29 00:11:20;;;;;;;6.57;4.93;;;;;;;;;;4420221;32;20701;-52
2021/05/29 00:13:46;;;;;;;7.47;5.00;;;;;;;;;;4420369;32;20610;-53
2021/05/29 00:16:12;;;;;;;7.55;5.05;;;;;;;;;;4420577;32;20327;-53
2021/05/29 00:18:38;;;;;;;6.75;5.37;;;;;;;;;;4420204;32;20921;-52
2021/05/29 00:21:04;;;;;;;23.15;9.20;;;;;;;;;;4420213;32;20300;-53
2021/05/29 00:23:29;;;;;;;19.23;9.35;;;;;;;;;;4420282;32;20608;-53
2021/05/29 00:25:55;;;;;;;34.47;8.77;;;;;;;;;;4420297;32;20264;-53
2021/05/29 00:28:20;;;;;;;18.15;8.52;;;;;;;;;;4420376;32;20639;-53
2021/05/29 00:30:46;;;;;;;14.05;6.30;;;;;;;;;;4420478;32;20276;-53
2021/05/29 00:33:12;;;;;;;13.20;7.07;;;;;;;;;;4406326;32;20233;-53
2021/05/29 00:35:38;;;;;;;16.67;7.20;;;;;;;;;;4420331;32;20205;-53
2021/05/29 00:38:04;;;;;;;16.10;7.75;;;;;;;;;;4420225;32;20341;-53
2021/05/29 00:40:30;;;;;;;14.05;6.97;;;;;;;;;;4420229;32;20272;-53
2021/05/29 00:42:56;;;;;;;8.32;6.60;;;;;;;;;;4420454;32;20247;-53
2021/05/29 00:45:22;;;;;;;10.20;6.25;;;;;;;;;;4420265;32;20296;-53
2021/05/29 00:47:48;;;;;;;8.75;6.43;;;;;;;;;;4420054;32;20299;-53
2021/05/29 00:50:14;;;;;;;7.90;5.60;;;;;;;;;;4420157;32;20315;-52
2021/05/29 00:52:40;;;;;;;10.55;6.53;;;;;;;;;;4420352;32;20321;-53
2021/05/29 00:55:12;;;;;;;8.30;6.37;;;;;;;;;;4419923;32;20294;-54
2021/05/29 00:57:43;;;;;;;11.00;6.40;;;;;;;;;;4393860;32;20236;-54
2021/05/29 01:00:09;;;;;;;8.05;5.30;;;;;;;;;;4419993;32;20197;-54
2021/05/29 01:02:35;;;;;;;8.98;5.28;;;;;;;;;;4420222;32;20256;-54
2021/05/29 01:05:00;;;;;;;8.02;5.93;;;;;;;;;;4419817;32;20309;-54
2021/05/29 01:07:26;;;;;;;8.02;6.18;;;;;;;;;;4419687;32;20300;-54
2021/05/29 01:09:52;;;;;;;8.05;5.68;;;;;;;;;;4419813;32;20231;-54
2021/05/29 01:12:18;;;;;;;10.43;5.87;;;;;;;;;;4420108;32;20292;-54
2021/05/29 01:14:56;;;;;;;11.80;5.87;;;;;;;;;;4419676;32;20442;-53
2021/05/29 01:17:23;;;;;;;10.32;6.10;;;;;;;;;;4419980;32;20220;-52
2021/05/29 01:19:49;;;;;;;7.43;6.15;;;;;;;;;;4420060;32;20223;-53
2021/05/29 01:22:33;;;;;;;9.98;5.80;;;;;;;;;;4419618;32;20229;-52
2021/05/29 01:24:59;;;;;;;9.25;5.70;;;;;;;;;;4413151;32;20206;-53
2021/05/29 01:27:24;;;;;;;9.65;6.18;;;;;;;;;;4404318;32;20279;-53
2021/05/29 01:29:50;;;;;;;8.65;5.57;;;;;;;;;;4391275;32;20239;-54
2021/05/29 01:32:19;;;;;;;7.15;5.65;;;;;;;;;;4419448;32;20285;-53
2021/05/29 01:34:45;;;;;;;8.05;5.85;;;;;;;;;;4419424;32;20269;-53
2021/05/29 01:37:11;;;;;;;9.52;5.30;;;;;;;;;;4419646;32;20259;-53
2021/05/29 01:39:36;;;;;;;9.50;5.85;;;;;;;;;;4419526;32;20235;-53
2021/05/29 01:42:02;;;;;;;9.52;5.82;;;;;;;;;;4419362;32;20278;-53
2021/05/29 01:44:27;;;;;;;13.23;6.68;;;;;;;;;;4419278;32;20331;-53
2021/05/29 01:46:53;;;;;;;10.48;6.30;;;;;;;;;;4419558;32;20576;-52
2021/05/29 01:49:19;;;;;;;14.52;5.75;;;;;;;;;;4419072;32;20584;-52
2021/05/29 01:51:45;;;;;;;6.80;5.83;;;;;;;;;;4419353;32;20221;-52
2021/05/29 01:54:15;;;;;;;6.68;5.55;;;;;;;;;;4419409;32;20223;-52
2021/05/29 01:56:40;;;;;;;6.55;5.90;;;;;;;;;;4419367;32;20285;-52
2021/05/29 01:59:05;;;;;;;14.05;5.68;;;;;;;;;;4419062;32;20308;-53
2021/05/29 02:01:31;;;;;;;11.43;6.13;;;;;;;;;;4419167;32;20241;-53
2021/05/29 02:03:56;;;;;;;12.35;6.32;;;;;;;;;;4419029;32;20205;-53
2021/05/29 02:06:22;;;;;;;8.93;6.22;;;;;;;;;;4405037;32;20299;-53
2021/05/29 02:08:47;;;;;;;8.70;5.53;;;;;;;;;;4405146;32;20229;-53
2021/05/29 02:11:13;;;;;;;16.40;6.22;;;;;;;;;;4418964;32;20755;-54
2021/05/29 02:13:41;;;;;;;8.02;5.93;;;;;;;;;;4419168;32;20276;-53
2021/05/29 02:16:09;;;;;;;8.55;6.45;;;;;;;;;;4418794;32;20200;-53
2021/05/29 02:18:35;;;;;;;10.55;5.78;;;;;;;;;;4415797;32;20293;-53
2021/05/29 02:21:09;;;;;;;8.15;6.20;;;;;;;;;;4403345;32;20232;-53
2021/05/29 02:23:41;;;;;;;9.75;6.20;;;;;;;;;;4403719;32;20214;-53
2021/05/29 02:26:10;;;;;;;11.15;6.22;;;;;;;;;;4416967;32;20209;-53
2021/05/29 02:28:36;;;;;;;6.53;5.93;;;;;;;;;;4418649;32;20197;-53
2021/05/29 02:31:04;;;;;;;7.83;6.10;;;;;;;;;;4418594;32;20575;-53
2021/05/29 02:33:29;;;;;;;9.85;6.53;;;;;;;;;;4418805;32;20272;-53
2021/05/29 02:35:55;;;;;;;10.02;5.78;;;;;;;;;;4418881;32;20657;-53
2021/05/29 02:38:21;;;;;;;10.97;5.87;;;;;;;;;;4418555;32;20205;-53
2021/05/29 02:40:46;;;;;;;9.32;6.65;;;;;;;;;;4418632;32;20307;-54
2021/05/29 02:43:12;;;;;;;9.55;6.03;;;;;;;;;;4418291;32;20214;-53
2021/05/29 02:45:41;;;;;;;9.15;6.70;;;;;;;;;;4418561;32;20272;-53
2021/05/29 02:48:11;;;;;;;8.65;5.40;;;;;;;;;;4418669;32;20225;-53
2021/05/29 02:50:37;;;;;;;8.32;5.47;;;;;;;;;;4418660;32;20613;-54
2021/05/29 02:53:03;;;;;;;11.98;6.53;;;;;;;;;;4404900;32;20252;-53
2021/05/29 02:55:28;;;;;;;8.43;5.40;;;;;;;;;;4418459;32;20284;-54
2021/05/29 02:57:56;;;;;;;11.32;5.68;;;;;;;;;;4418485;32;20748;-53
2021/05/29 03:00:26;;;;;;;10.35;5.87;;;;;;;;;;4418734;32;20640;-54
2021/05/29 03:02:52;;;;;;;20.83;7.20;;;;;;;;;;4418668;32;20636;-53
2021/05/29 03:05:18;;;;;;;11.07;6.27;;;;;;;;;;4417934;32;20244;-53
2021/05/29 03:07:45;;;;;;;8.88;6.00;;;;;;;;;;4418061;32;20451;-53
2021/05/29 03:10:11;;;;;;;7.87;5.77;;;;;;;;;;4418096;32;20221;-54
2021/05/29 03:12:38;;;;;;;11.47;5.93;;;;;;;;;;4418309;32;20504;-53
2021/05/29 03:15:09;;;;;;;14.13;5.27;;;;;;;;;;4417997;32;20355;-53
2021/05/29 03:17:35;;;;;;;7.15;4.78;;;;;;;;;;4418535;32;20240;-54
2021/05/29 03:20:00;;;;;;;7.32;5.18;;;;;;;;;;4405913;32;20340;-54
2021/05/29 03:22:26;;;;;;;8.95;5.35;;;;;;;;;;4402784;32;20247;-54
2021/05/29 03:24:52;;;;;;;10.97;6.10;;;;;;;;;;4408444;32;20239;-53
2021/05/29 03:27:18;;;;;;;15.67;6.90;;;;;;;;;;4418194;32;20217;-53
2021/05/29 03:29:45;;;;;;;11.43;6.10;;;;;;;;;;4404246;32;20644;-53
2021/05/29 03:32:11;;;;;;;16.10;6.70;;;;;;;;;;4417152;32;20221;-53
2021/05/29 03:34:37;;;;;;;13.13;7.25;;;;;;;;;;4417953;32;20545;-53
2021/05/29 03:37:03;;;;;;;8.80;7.15;;;;;;;;;;4418066;32;20267;-53
2021/05/29 03:39:29;;;;;;;11.93;7.93;;;;;;;;;;4417687;32;20273;-53
2021/05/29 03:41:55;;;;;;;9.47;7.07;;;;;;;;;;4418046;32;20282;-53
2021/05/29 03:44:20;;;;;;;8.93;6.43;;;;;;;;;;4417755;32;20316;-53
2021/05/29 03:46:45;;;;;;;14.10;6.87;;;;;;;;;;4417715;32;20213;-53
2021/05/29 03:49:11;;;;;;;7.63;6.93;;;;;;;;;;4417707;32;20546;-53
2021/05/29 03:51:36;;;;;;;10.43;7.68;;;;;;;;;;4417778;32;20243;-53
2021/05/29 03:54:02;;;;;;;11.53;8.13;;;;;;;;;;4417531;32;20279;-53
2021/05/29 03:56:27;;;;;;;16.20;9.83;;;;;;;;;;4418119;32;20735;-53
2021/05/29 03:58:53;;;;;;;14.50;7.53;;;;;;;;;;4417789;32;20272;-53
2021/05/29 04:01:19;;;;;;;11.10;7.17;;;;;;;;;;4417598;32;20749;-52
2021/05/29 04:03:44;;;;;;;9.97;7.40;;;;;;;;;;4417701;32;20841;-52
2021/05/29 04:06:10;;;;;;;19.83;7.77;;;;;;;;;;4417426;32;20260;-53
2021/05/29 04:08:35;;;;;;;13.17;7.00;;;;;;;;;;4417385;32;20318;-53
2021/05/29 04:11:01;;;;;;;10.68;6.57;;;;;;;;;;4417891;32;20337;-53
2021/05/29 04:13:26;;;;;;;16.10;6.90;;;;;;;;;;4417414;32;20330;-54
2021/05/29 04:15:51;;;;;;;8.90;7.07;;;;;;;;;;4417806;32;20299;-53
2021/05/29 04:18:17;;;;;;;10.43;6.50;;;;;;;;;;4416780;32;20209;-53
2021/05/29 04:20:43;;;;;;;16.73;7.23;;;;;;;;;;4402388;32;20665;-53
2021/05/29 04:23:08;;;;;;;13.60;6.90;;;;;;;;;;4402246;32;20226;-53
2021/05/29 04:25:34;;;;;;;15.20;6.57;;;;;;;;;;4412507;32;20307;-54
2021/05/29 04:27:59;;;;;;;7.20;6.30;;;;;;;;;;4417652;32;20221;-53
2021/05/29 04:30:27;;;;;;;9.63;7.20;;;;;;;;;;4416678;32;20429;-53
2021/05/29 04:32:53;;;;;;;7.07;6.47;;;;;;;;;;4402284;32;20283;-53
2021/05/29 04:35:19;;;;;;;12.97;6.43;;;;;;;;;;4402066;32;20340;-55
2021/05/29 04:37:46;;;;;;;8.87;6.43;;;;;;;;;;4402278;32;20327;-53
2021/05/29 04:40:12;;;;;;;10.10;5.50;;;;;;;;;;4402391;32;20201;-53
2021/05/29 04:42:38;;;;;;;9.00;6.20;;;;;;;;;;4403401;32;20252;-53
2021/05/29 04:45:06;;;;;;;12.23;6.17;;;;;;;;;;4404626;32;20276;-53
2021/05/29 04:47:31;;;;;;;12.87;6.03;;;;;;;;;;4390954;32;20237;-53
2021/05/29 04:49:57;;;;;;;8.80;5.60;;;;;;;;;;4404677;32;20210;-53
2021/05/29 04:52:22;;;;;;;12.60;6.68;;;;;;;;;;4405000;32;20278;-53
2021/05/29 04:54:48;;;;;;;10.07;7.13;;;;;;;;;;4404597;32;20660;-53
2021/05/29 04:57:13;;;;;;;11.00;6.43;;;;;;;;;;4405039;32;20273;-53
2021/05/29 04:59:38;;;;;;;13.83;6.53;;;;;;;;;;4404717;32;20213;-53
2021/05/29 05:02:04;;;;;;;15.83;7.03;;;;;;;;;;4404416;32;20340;-53
2021/05/29 05:04:29;;;;;;;8.17;6.23;;;;;;;;;;4404356;32;20193;-53
2021/05/29 05:06:55;;;;;;;14.23;6.20;;;;;;;;;;4404627;32;20542;-52
2021/05/29 05:09:21;;;;;;;7.40;6.53;;;;;;;;;;4404355;32;20238;-53
2021/05/29 05:11:46;;;;;;;12.88;7.32;;;;;;;;;;4404490;32;20244;-52
2021/05/29 05:14:12;;;;;;;8.43;7.27;;;;;;;;;;4404161;32;20231;-53
2021/05/29 05:16:37;;;;;;;8.63;6.33;;;;;;;;;;4404169;32;20566;-53
2021/05/29 05:19:03;;;;;;;9.23;5.60;;;;;;;;;;4395721;32;20718;-53
2021/05/29 05:21:28;;;;;;;8.97;5.93;;;;;;;;;;4419438;32;20246;-54
2021/05/29 05:23:56;;;;;;;10.50;5.80;;;;;;;;;;4419865;32;20280;-52
2021/05/29 05:26:22;;;;;;;9.50;5.70;;;;;;;;;;4419399;32;20630;-53
2021/05/29 05:28:47;;;;;;;9.85;5.53;;;;;;;;;;4419577;32;20639;-53
2021/05/29 05:31:13;;;;;;;7.43;6.37;;;;;;;;;;4419147;32;20386;-53
2021/05/29 05:33:44;;;;;;;11.70;5.70;;;;;;;;;;4419230;32;20241;-53
2021/05/29 05:36:11;;;;;;;8.20;5.37;;;;;;;;;;4419260;32;20332;-53
2021/05/29 05:38:38;;;;;;;6.62;5.15;;;;;;;;;;4419116;32;20209;-53
2021/05/29 05:41:05;;;;;;;6.27;4.87;;;;;;;;;;4419091;32;20243;-53
2021/05/29 05:43:31;;;;;;;12.40;5.55;;;;;;;;;;4415518;32;20612;-54
2021/05/29 05:45:57;;;;;;;8.63;5.65;;;;;;;;;;4417112;32;20322;-53
2021/05/29 05:48:22;;;;;;;11.60;6.07;;;;;;;;;;4417061;32;20213;-53
2021/05/29 05:50:55;;;;;;;7.72;6.28;;;;;;;;;;4416868;32;20765;-54
2021/05/29 05:53:22;;;;;;;9.80;7.17;;;;;;;;;;4416989;32;20644;-53
2021/05/29 05:55:54;;;;;;;9.53;6.63;;;;;;;;;;4416627;32;20297;-53
2021/05/29 05:58:19;;;;;;;10.10;7.17;;;;;;;;;;4416823;32;20221;-53
2021/05/29 06:00:45;;;;;;;8.30;6.03;;;;;;;;;;4403015;32;20348;-53
2021/05/29 06:03:10;;;;;;;13.68;6.10;;;;;;;;;;4416766;32;20579;-53
2021/05/29 06:05:36;;;;;;;8.77;5.28;;;;;;;;;;4416292;32;20268;-53
2021/05/29 06:08:01;;;;;;;9.57;6.20;;;;;;;;;;4416906;32;20666;-53
2021/05/29 06:10:27;;;;;;;12.63;7.78;;;;;;;;;;4416603;32;20288;-53
2021/05/29 06:12:54;;;;;;;12.82;8.00;;;;;;;;;;4417247;32;20301;-53
2021/05/29 06:18:16;;;;;;;15.10;8.10;;;;;;;;;;4418481;32;20350;-53
2021/05/29 06:20:46;;;;;;;10.18;6.35;;;;;;;;;;4403419;32;20201;-53
2021/05/29 06:23:12;;;;;;;13.43;8.52;;;;;;;;;;4403591;32;20654;-53
2021/05/29 06:25:40;;;;;;;53.80;11.50;;;;;;;;;;4403242;32;20334;-53
2021/05/29 06:28:05;;;;;;;10.90;8.30;;;;;;;;;;4402885;32;20860;-56
2021/05/29 06:30:31;;;;;;;11.05;7.47;;;;;;;;;;4403815;32;20288;-54
2021/05/29 06:32:56;;;;;;;12.30;6.53;;;;;;;;;;4418094;32;20645;-52
2021/05/29 06:35:22;;;;;;;8.15;7.20;;;;;;;;;;4418266;32;20307;-53
2021/05/29 06:37:47;;;;;;;15.80;7.03;;;;;;;;;;4417744;32;20377;-53
2021/05/29 06:40:13;;;;;;;12.88;6.90;;;;;;;;;;4417634;32;20333;-53
2021/05/29 06:42:39;;;;;;;10.95;6.15;;;;;;;;;;4417737;32;20232;-53
2021/05/29 06:45:05;;;;;;;15.88;6.45;;;;;;;;;;4417778;32;20259;-53
2021/05/29 06:47:31;;;;;;;7.40;5.28;;;;;;;;;;4404026;32;20232;-52
2021/05/29 06:49:56;;;;;;;8.65;5.22;;;;;;;;;;4417757;32;20234;-52
2021/05/29 06:52:27;;;;;;;6.87;4.93;;;;;;;;;;4417826;32;20698;-52
2021/05/29 07:00:08;;;;;;;6.53;5.10;;;;;;;;;;4417538;32;20254;-52
2021/05/29 07:02:34;;;;;;;5.25;3.78;;;;;;;;;;4417845;32;20213;-53
2021/05/29 07:05:00;;;;;;;8.45;3.45;;;;;;;;;;4417268;32;20431;-53
2021/05/29 07:07:26;;;;;;;5.45;3.75;;;;;;;;;;4417516;32;20295;-52
2021/05/29 07:09:52;;;;;;;5.80;4.35;;;;;;;;;;4417079;32;20263;-53
2021/05/29 07:12:17;;;;;;;8.57;3.67;;;;;;;;;;4417440;32;20293;-53
2021/05/29 07:14:43;;;;;;;15.63;4.80;;;;;;;;;;4417495;32;20240;-53
2021/05/29 07:17:08;;;;;;;8.40;3.60;;;;;;;;;;4403532;32;20245;-53
2021/05/29 07:19:34;;;;;;;11.12;3.83;;;;;;;;;;4417234;32;20300;-53
2021/05/29 07:22:00;;;;;;;7.32;2.60;;;;;;;;;;4403403;32;20698;-54
2021/05/29 07:24:26;;;;;;;4.18;2.22;;;;;;;;;;4417704;32;20298;-53
2021/05/29 07:26:53;;;;;;;4.97;1.83;;;;;;;;;;4403965;32;20255;-52
2021/05/29 07:29:19;;;;;;;5.60;1.83;;;;;;;;;;4417534;32;20235;-53
2021/05/29 07:31:45;;;;;;;8.70;2.85;;;;;;;;;;4408584;32;20307;-53
2021/05/29 07:34:11;;;;;;;12.40;1.92;;;;;;;;;;4402309;32;20210;-53
2021/05/29 07:36:36;;;;;;;6.28;2.75;;;;;;;;;;4402366;32;20292;-54
2021/05/29 07:39:03;;;;;;;7.30;2.95;;;;;;;;;;4402411;32;20621;-53
2021/05/29 07:41:28;;;;;;;8.65;3.87;;;;;;;;;;4402229;32;20304;-54
2021/05/29 07:43:54;;;;;;;2.42;2.22;;;;;;;;;;4410068;32;20288;-53
2021/05/29 07:46:19;;;;;;;14.82;3.60;;;;;;;;;;4417636;32;20228;-53
2021/05/29 07:48:46;;;;;;;6.45;2.67;;;;;;;;;;4417347;32;20298;-55
2021/05/29 07:51:11;;;;;;;5.30;2.03;;;;;;;;;;4417642;32;20222;-52
2021/05/29 07:53:41;;;;;;;15.13;2.97;;;;;;;;;;4417473;32;20598;-52
2021/05/29 07:56:12;;;;;;;5.00;1.98;;;;;;;;;;4417271;32;20254;-51
2021/05/29 07:58:41;;;;;;;8.45;1.73;;;;;;;;;;4417341;32;20189;-53
2021/05/29 08:01:07;;;;;;;7.20;1.80;;;;;;;;;;4417074;32;20282;-53
2021/05/29 08:03:33;;;;;;;1.70;1.60;;;;;;;;;;4417210;32;20210;-53
2021/05/29 08:06:01;;;;;;;3.62;2.08;;;;;;;;;;4417485;32;20261;-53
2021/05/29 08:08:27;;;;;;;2.85;1.90;;;;;;;;;;4417163;32;20240;-53
2021/05/29 08:10:53;;;;;;;14.48;3.17;;;;;;;;;;4403460;32;20774;-53
2021/05/29 08:13:20;;;;;;;4.28;1.58;;;;;;;;;;4417552;32;20244;-53
2021/05/29 08:15:47;;;;;;;10.05;3.05;;;;;;;;;;4417290;32;20606;-54
2021/05/29 08:18:15;;;;;;;8.88;2.33;;;;;;;;;;4418894;32;20298;-54
2021/05/29 08:20:42;;;;;;;3.50;1.73;;;;;;;;;;4419972;32;20237;-54
2021/05/29 08:23:07;;;;;;;2.25;1.48;;;;;;;;;;4419932;32;20516;-53
2021/05/29 08:25:33;;;;;;;2.72;1.67;;;;;;;;;;4420794;32;20307;-53
2021/05/29 08:27:59;;;;;;;4.35;1.90;;;;;;;;;;4420629;32;20209;-54
2021/05/29 08:30:25;;;;;;;4.43;1.48;;;;;;;;;;4419523;32;20292;-53
2021/05/29 08:32:51;;;;;;;3.62;2.10;;;;;;;;;;4405380;32;20248;-52
2021/05/29 08:35:17;;;;;;;4.07;1.58;;;;;;;;;;4404838;32;20329;-54
2021/05/29 08:37:45;;;;;;;5.32;1.58;;;;;;;;;;4390769;32;20237;-53
2021/05/29 08:40:12;;;;;;;4.28;1.98;;;;;;;;;;4404715;32;20210;-53
2021/05/29 08:42:38;;;;;;;5.65;1.45;;;;;;;;;;4404999;32;20217;-53
2021/05/29 08:45:05;;;;;;;3.03;1.83;;;;;;;;;;4419699;32;20291;-53
2021/05/29 08:47:30;;;;;;;5.37;1.67;;;;;;;;;;4419929;32;20281;-53
2021/05/29 08:49:56;;;;;;;5.07;1.48;;;;;;;;;;4419663;32;20201;-53
2021/05/29 08:52:21;;;;;;;11.02;1.95;;;;;;;;;;4419882;32;20244;-53
2021/05/29 08:54:47;;;;;;;5.00;1.40;;;;;;;;;;4419957;32;20206;-53
2021/05/29 08:57:15;;;;;;;4.10;1.95;;;;;;;;;;4420233;32;20541;-53
2021/05/29 08:59:41;;;;;;;1.42;1.25;;;;;;;;;;4420153;32;20252;-54
2021/05/29 09:02:06;;;;;;;5.85;1.62;;;;;;;;;;4419497;32;20225;-53
2021/05/29 09:04:32;;;;;;;5.43;1.67;;;;;;;;;;4419696;32;20209;-53
2021/05/29 09:06:59;;;;;;;1.77;1.42;;;;;;;;;;4419913;32;20331;-53
2021/05/29 09:09:24;;;;;;;7.93;1.58;;;;;;;;;;4419506;32;20340;-53
2021/05/29 09:11:56;;;;;;;5.87;1.62;;;;;;;;;;4419741;32;20337;-53
2021/05/29 09:14:25;;;;;;;4.15;1.30;;;;;;;;;;4419678;32;20193;-53
2021/05/29 09:17:21;;;;;;;8.25;1.42;;;;;;;;;;4419160;32;20292;-53
2021/05/29 09:20:05;;;;;;;2.60;1.45;;;;;;;;;;4419233;32;20396;-53
2021/05/29 09:22:30;;;;;;;5.35;1.50;;;;;;;;;;4419329;32;20232;-52
2021/05/29 09:24:56;;;;;;;2.33;1.20;;;;;;;;;;4419476;32;20304;-53
2021/05/29 09:27:21;;;;;;;5.62;1.30;;;;;;;;;;4419495;32;20244;-52
2021/05/29 09:29:47;;;;;;;6.15;1.50;;;;;;;;;;4418312;32;20213;-53
2021/05/29 09:32:12;;;;;;;1.90;1.05;;;;;;;;;;4407094;32;20566;-53
2021/05/29 09:35:00;;;;;;;5.53;1.87;;;;;;;;;;4390177;32;20233;-53
2021/05/29 09:37:28;;;;;;;8.57;1.90;;;;;;;;;;4390741;32;20217;-52
2021/05/29 09:39:59;;;;;;;9.07;1.73;;;;;;;;;;4403964;32;20202;-52
2021/05/29 09:42:30;;;;;;;9.55;2.20;;;;;;;;;;4404341;32;20664;-52
2021/05/29 09:44:55;;;;;;;1.95;1.55;;;;;;;;;;4418105;32;20210;-52
2021/05/29 09:47:25;;;;;;;7.78;1.58;;;;;;;;;;4419727;32;20224;-52
2021/05/29 09:49:58;;;;;;;4.57;1.50;;;;;;;;;;4418993;32;20205;-53
2021/05/29 09:52:29;;;;;;;3.95;1.48;;;;;;;;;;4419056;32;20709;-53
2021/05/29 09:54:59;;;;;;;1.80;1.30;;;;;;;;;;4418816;32;20602;-53
2021/05/29 09:57:26;;;;;;;1.40;1.30;;;;;;;;;;4418930;32;20269;-52
2021/05/29 09:59:56;;;;;;;2.15;1.25;;;;;;;;;;4419097;32;20217;-53
2021/05/29 10:02:22;;;;;;;3.62;1.42;;;;;;;;;;4419003;32;20221;-53
2021/05/29 10:04:53;;;;;;;1.30;1.10;;;;;;;;;;4418466;32;20280;-53
2021/05/29 10:07:19;;;;;;;3.35;1.55;;;;;;;;;;4418935;32;20289;-52
2021/05/29 10:09:46;;;;;;;7.95;4.65;;;;;;;;;;4418592;32;20408;-52
2021/05/29 10:12:11;;;;;;;4.97;1.52;;;;;;;;;;4418793;32;20221;-52
2021/05/29 10:14:37;;;;;;;18.00;2.65;;;;;;;;;;4418507;32;20237;-53
2021/05/29 10:17:05;;;;;;;21.35;1.83;;;;;;;;;;4419032;32;20251;-53
2021/05/29 10:19:32;;;;;;;2.00;1.42;;;;;;;;;;4418532;32;20245;-53
2021/05/29 10:22:03;;;;;;;3.37;1.37;;;;;;;;;;4418857;32;20248;-53
2021/05/29 10:24:29;;;;;;;1.85;1.50;;;;;;;;;;4418388;32;20306;-53
2021/05/29 10:26:55;;;;;;;6.57;1.00;;;;;;;;;;4418808;32;20613;-53
2021/05/29 10:29:25;;;;;;;6.50;1.40;;;;;;;;;;4418490;32;20213;-53
2021/05/29 10:31:50;;;;;;;10.43;1.30;;;;;;;;;;4408662;32;20252;-53
2021/05/29 10:34:16;;;;;;;2.40;1.87;;;;;;;;;;4402955;32;20566;-53
2021/05/29 10:36:57;;;;;;;4.00;1.05;;;;;;;;;;4403239;32;20307;-53
2021/05/29 10:39:24;;;;;;;8.77;1.70;;;;;;;;;;4403105;32;20241;-53
2021/05/29 10:42:00;;;;;;;7.47;1.55;;;;;;;;;;4403085;32;20213;-53
2021/05/29 10:44:38;;;;;;;3.62;1.87;;;;;;;;;;4414053;32;20607;-53
2021/05/29 10:47:17;;;;;;;2.28;1.50;;;;;;;;;;4418133;32;20285;-53
2021/05/29 10:49:49;;;;;;;5.87;1.65;;;;;;;;;;4418148;32;20223;-52
2021/05/29 10:52:30;;;;;;;5.87;1.50;;;;;;;;;;4418262;32;20305;-53
2021/05/29 10:55:08;;;;;;;4.12;1.60;;;;;;;;;;4417613;32;20278;-53
2021/05/29 10:57:53;;;;;;;18.75;2.17;;;;;;;;;;4418270;32;20281;-53
2021/05/29 11:00:41;;;;;;;5.80;1.60;;;;;;;;;;4418134;32;20575;-53
2021/05/29 11:03:15;;;;;;;6.10;1.25;;;;;;;;;;4418057;32;20252;-52
2021/05/29 11:05:41;;;;;;;3.08;1.77;;;;;;;;;;4418055;32;20224;-52
2021/05/29 11:08:52;;;;;;;6.55;1.40;;;;;;;;;;4417675;32;20258;-52
2021/05/29 11:11:35;;;;;;;3.58;1.20;;;;;;;;;;4340768;33;20285;-52
2021/05/29 11:14:05;;;;;;;4.25;1.02;;;;;;;;;;4340616;33;20366;-52
2021/05/29 11:16:45;;;;;;;1.33;1.20;;;;;;;;;;4391436;32;20224;-51
2021/05/29 11:19:21;;;;;;;4.40;1.15;;;;;;;;;;4411177;32;20204;-51
2021/05/29 11:21:59;;;;;;;5.57;1.25;;;;;;;;;;4402608;32;20252;-52
2021/05/29 11:24:25;;;;;;;2.33;1.10;;;;;;;;;;4402674;32;20301;-52
2021/05/29 11:26:50;;;;;;;2.53;1.10;;;;;;;;;;4402930;32;20255;-52
2021/05/29 11:29:16;;;;;;;3.85;1.20;;;;;;;;;;4406918;32;20557;-52
2021/05/29 11:31:45;;;;;;;6.00;1.10;;;;;;;;;;4409842;32;20217;-52
2021/05/29 11:34:11;;;;;;;1.90;1.15;;;;;;;;;;4409769;32;20221;-52
2021/05/29 11:36:39;;;;;;;9.63;1.05;;;;;;;;;;4403129;32;20241;-52
2021/05/29 11:39:12;;;;;;;2.95;1.25;;;;;;;;;;4402873;32;20660;-52
2021/05/29 11:41:38;;;;;;;2.25;1.23;;;;;;;;;;4412822;32;20233;-52
2021/05/29 11:44:06;;;;;;;4.57;1.48;;;;;;;;;;4400628;32;20374;-52
2021/05/29 11:46:32;;;;;;;1.05;0.95;;;;;;;;;;4410786;32;20561;-52
2021/05/29 11:49:05;;;;;;;9.75;1.27;;;;;;;;;;4406036;32;20217;-52
2021/05/29 11:51:34;;;;;;;5.00;1.40;;;;;;;;;;4402281;32;20284;-52
2021/05/29 11:54:13;;;;;;;4.07;1.45;;;;;;;;;;4420085;32;20622;-53
2021/05/29 11:56:40;;;;;;;3.67;1.42;;;;;;;;;;4414667;32;20293;-53
2021/05/29 11:59:09;;;;;;;5.57;1.17;;;;;;;;;;4416547;32;20933;-53
2021/05/29 12:01:37;;;;;;;1.95;1.10;;;;;;;;;;4410840;32;20289;-52
2021/05/29 12:04:05;;;;;;;5.37;1.60;;;;;;;;;;4419359;32;20270;-52
2021/05/29 12:06:36;;;;;;;4.68;1.00;;;;;;;;;;4418830;32;20283;-53
2021/05/29 12:09:12;;;;;;;3.78;1.05;;;;;;;;;;4420513;32;20221;-52
2021/05/29 12:11:41;;;;;;;4.12;1.80;;;;;;;;;;4420179;32;20267;-52
2021/05/29 12:14:12;;;;;;;3.37;1.20;;;;;;;;;;4420179;32;20326;-52
2021/05/29 12:16:59;;;;;;;4.10;0.90;;;;;;;;;;4419569;32;20633;-52
2021/05/29 12:19:30;;;;;;;7.12;1.65;;;;;;;;;;4417458;32;20295;-52
2021/05/29 12:21:58;;;;;;;1.50;1.00;;;;;;;;;;4413967;32;20645;-52
2021/05/29 12:24:26;;;;;;;6.22;1.37;;;;;;;;;;4413903;32;20252;-52
2021/05/29 12:26:52;;;;;;;3.37;1.00;;;;;;;;;;4418344;32;20287;-52
2021/05/29 12:29:23;;;;;;;7.28;0.98;;;;;;;;;;4418034;32;20696;-52
2021/05/29 12:31:54;;;;;;;2.53;1.20;;;;;;;;;;4418237;32;20558;-52
2021/05/29 12:34:22;;;;;;;3.90;1.62;;;;;;;;;;4418320;32;20256;-51
2021/05/29 12:37:02;;;;;;;2.78;1.20;;;;;;;;;;4406023;32;20370;-53
2021/05/29 12:39:46;;;;;;;4.78;1.27;;;;;;;;;;4404373;32;20245;-51
2021/05/29 12:42:24;;;;;;;6.45;1.35;;;;;;;;;;4404941;32;20290;-52
2021/05/29 12:44:52;;;;;;;4.45;1.17;;;;;;;;;;4404654;32;20251;-52
2021/05/29 12:47:19;;;;;;;2.62;1.10;;;;;;;;;;4404657;32;20371;-52
2021/05/29 12:49:45;;;;;;;3.70;1.55;;;;;;;;;;4404719;32;20311;-52
2021/05/29 12:52:33;;;;;;;3.60;1.25;;;;;;;;;;4416820;32;20645;-52
2021/05/29 12:55:00;;;;;;;5.65;1.37;;;;;;;;;;4419880;32;20228;-52
2021/05/29 12:57:55;;;;;;;3.87;1.37;;;;;;;;;;4419765;32;20394;-52
2021/05/29 13:11:30;;;;;;;8.40;1.35;;;;;;;;;;4419704;32;20497;-51
2021/05/29 13:14:10;;;;;;;2.20;1.10;;;;;;;;;;4405819;32;20217;-52
2021/05/29 13:16:59;;;;;;;9.48;1.42;;;;;;;;;;4419815;32;20395;-52
2021/05/29 13:19:28;;;;;;;8.13;1.35;;;;;;;;;;4411935;32;20268;-52
2021/05/29 13:22:01;;;;;;;4.45;1.02;;;;;;;;;;4404637;32;20296;-52
2021/05/29 13:24:49;;;;;;;14.65;1.35;;;;;;;;;;4404561;32;20285;-52
2021/05/29 13:27:21;;;;;;;3.17;1.02;;;;;;;;;;4404443;32;20284;-52
2021/05/29 13:29:48;;;;;;;3.70;0.85;;;;;;;;;;4404090;32;20197;-52
2021/05/29 13:32:15;;;;;;;3.70;0.85;;;;;;;;;;4416204;32;20275;-52
2021/05/29 13:34:41;;;;;;;1.20;1.10;;;;;;;;;;4419307;32;20606;-52
2021/05/29 13:37:07;;;;;;;2.42;1.00;;;;;;;;;;4419459;32;20293;-51
2021/05/29 13:39:32;;;;;;;3.17;1.15;;;;;;;;;;4419234;32;20321;-52
2021/05/29 13:42:00;;;;;;;3.50;1.40;;;;;;;;;;4419278;32;20220;-51
2021/05/29 13:44:26;;;;;;;4.85;1.02;;;;;;;;;;4407596;32;20272;-52
2021/05/29 13:46:51;;;;;;;3.33;1.98;;;;;;;;;;4403367;32;20257;-53
2021/05/29 13:49:17;;;;;;;1.98;1.00;;;;;;;;;;4403644;32;20260;-52
2021/05/29 13:51:44;;;;;;;3.95;1.02;;;;;;;;;;4412976;32;20557;-53
2021/05/29 13:54:10;;;;;;;6.15;1.20;;;;;;;;;;4418917;32;20217;-52
2021/05/29 13:56:35;;;;;;;7.72;3.00;;;;;;;;;;4419128;32;20217;-52
2021/05/29 13:59:04;;;;;;;2.40;1.20;;;;;;;;;;4419279;32;20567;-52
2021/05/29 14:01:31;;;;;;;8.50;0.90;;;;;;;;;;4418579;32;20251;-52
2021/05/29 14:03:57;;;;;;;8.10;1.10;;;;;;;;;;4418076;32;20290;-52
2021/05/29 14:06:23;;;;;;;2.12;1.12;;;;;;;;;;4418790;32;20253;-53
2021/05/29 14:08:49;;;;;;;4.53;1.10;;;;;;;;;;4418530;32;20232;-53
2021/05/29 14:11:25;;;;;;;1.55;0.70;;;;;;;;;;4418752;32;20308;-53
2021/05/29 14:13:51;;;;;;;5.90;1.10;;;;;;;;;;4403546;32;20193;-53
2021/05/29 14:16:18;;;;;;;2.15;0.82;;;;;;;;;;4403027;32;20292;-53
2021/05/29 14:18:45;;;;;;;2.05;1.00;;;;;;;;;;4407254;32;20367;-53
2021/05/29 14:21:12;;;;;;;1.70;1.25;;;;;;;;;;4418597;32;20242;-52
2021/05/29 14:23:38;;;;;;;4.93;1.12;;;;;;;;;;4418739;32;20273;-53
2021/05/29 14:26:04;;;;;;;1.25;0.98;;;;;;;;;;4418179;32;20367;-51
2021/05/29 14:28:30;;;;;;;2.20;1.00;;;;;;;;;;4418461;32;20260;-51
2021/05/29 14:30:55;;;;;;;11.55;1.83;;;;;;;;;;4414269;32;20310;-51
2021/05/29 14:33:21;;;;;;;4.65;1.48;;;;;;;;;;4403131;32;20209;-52
2021/05/29 14:35:46;;;;;;;4.03;0.82;;;;;;;;;;4403501;32;20384;-52
2021/05/29 14:38:12;;;;;;;4.32;1.33;;;;;;;;;;4410512;32;20289;-52
2021/05/29 14:40:37;;;;;;;3.45;1.30;;;;;;;;;;4405009;32;20715;-51
2021/05/29 14:43:03;;;;;;;1.00;0.88;;;;;;;;;;4403128;32;20217;-52
2021/05/29 14:45:28;;;;;;;4.18;1.45;;;;;;;;;;4403543;32;20281;-51
2021/05/29 14:47:54;;;;;;;5.93;1.58;;;;;;;;;;4403381;32;20296;-51
2021/05/29 14:50:19;;;;;;;5.85;1.50;;;;;;;;;;4403349;32;20264;-51
2021/05/29 14:52:44;;;;;;;3.53;1.30;;;;;;;;;;4418597;32;20213;-51
2021/05/29 14:55:11;;;;;;;2.53;1.27;;;;;;;;;;4418357;32;20276;-51
2021/05/29 14:57:36;;;;;;;1.77;1.02;;;;;;;;;;4418414;32;20226;-51
2021/05/29 15:00:04;;;;;;;4.07;2.85;;;;;;;;;;4418195;32;20228;-51
2021/05/29 15:02:30;;;;;;;2.05;1.20;;;;;;;;;;4417864;32;20300;-51